sensor_id;sensor_type;location;lat;lon;timestamp;P1;durP1;ratioP1;P2;durP2;ratioP2
14613;SDS011;7393;51.446;6.800;2023-07-13T00:00:02;4.27;;;2.10;;
14613;SDS011;7393;51.446;6.800;2023-07-13T00:02:34;3.77;;;1.40;;
14613;SDS011;7393;51.446;6.800;2023-07-13T00:05:01;3.23;;;1.50;;
14613;SDS011;7393;51.446;6.800;2023-07-13T00:07:28;2.03;;;1.27;;
14613;SDS011;7393;51.446;6.800;2023-07-13T00:09:56;4.53;;;1.37;;
14613;SDS011;7393;51.446;6.800;2023-07-13T00:12:25;2.73;;;1.23;;
14613;SDS011;7393;51.446;6.800;2023-07-13T00:14:52;5.57;;;1.50;;
14613;SDS011;7393;51.446;6.800;2023-07-13T00:17:21;8.13;;;1.90;;
14613;SDS011;7393;51.446;6.800;2023-07-13T00:19:47;5.23;;;1.20;;
14613;SDS011;7393;51.446;6.800;2023-07-13T00:22:14;3.00;;;1.50;;
14613;SDS011;7393;51.446;6.800;2023-07-13T00:24:43;3.00;;;1.47;;
14613;SDS011;7393;51.446;6.800;2023-07-13T00:27:10;4.03;;;1.50;;
14613;SDS011;7393;51.446;6.800;2023-07-13T00:29:37;3.87;;;1.70;;
14613;SDS011;7393;51.446;6.800;2023-07-13T00:32:05;3.60;;;1.50;;
14613;SDS011;7393;51.446;6.800;2023-07-13T00:34:35;3.53;;;1.57;;
14613;SDS011;7393;51.446;6.800;2023-07-13T00:37:02;2.77;;;1.33;;
14613;SDS011;7393;51.446;6.800;2023-07-13T00:39:31;4.70;;;1.33;;
14613;SDS011;7393;51.446;6.800;2023-07-13T00:41:58;3.80;;;1.63;;
14613;SDS011;7393;51.446;6.800;2023-07-13T00:44:25;4.63;;;1.10;;
14613;SDS011;7393;51.446;6.800;2023-07-13T00:46:52;6.23;;;1.53;;
14613;SDS011;7393;51.446;6.800;2023-07-13T00:49:22;2.53;;;1.07;;
14613;SDS011;7393;51.446;6.800;2023-07-13T00:51:51;4.23;;;1.57;;
14613;SDS011;7393;51.446;6.800;2023-07-13T00:54:22;4.20;;;1.13;;
14613;SDS011;7393;51.446;6.800;2023-07-13T00:56:53;2.53;;;1.20;;
14613;SDS011;7393;51.446;6.800;2023-07-13T00:59:25;4.30;;;1.20;;
14613;SDS011;7393;51.446;6.800;2023-07-13T01:01:52;3.13;;;1.10;;
14613;SDS011;7393;51.446;6.800;2023-07-13T01:04:20;3.93;;;1.43;;
14613;SDS011;7393;51.446;6.800;2023-07-13T01:06:47;3.90;;;1.10;;
14613;SDS011;7393;51.446;6.800;2023-07-13T01:09:15;4.20;;;1.60;;
14613;SDS011;7393;51.446;6.800;2023-07-13T01:11:43;4.37;;;1.40;;
14613;SDS011;7393;51.446;6.800;2023-07-13T01:14:10;4.97;;;1.70;;
14613;SDS011;7393;51.446;6.800;2023-07-13T01:16:37;5.17;;;1.40;;
14613;SDS011;7393;51.446;6.800;2023-07-13T01:19:07;4.10;;;1.50;;
14613;SDS011;7393;51.446;6.800;2023-07-13T01:21:43;4.00;;;1.60;;
14613;SDS011;7393;51.446;6.800;2023-07-13T01:24:15;8.37;;;1.57;;
14613;SDS011;7393;51.446;6.800;2023-07-13T01:26:42;3.33;;;1.40;;
14613;SDS011;7393;51.446;6.800;2023-07-13T01:29:09;5.07;;;1.80;;
14613;SDS011;7393;51.446;6.800;2023-07-13T01:31:36;3.57;;;1.70;;
14613;SDS011;7393;51.446;6.800;2023-07-13T01:34:02;4.13;;;1.57;;
14613;SDS011;7393;51.446;6.800;2023-07-13T01:36:30;3.80;;;1.40;;
14613;SDS011;7393;51.446;6.800;2023-07-13T01:38:58;5.87;;;1.57;;
14613;SDS011;7393;51.446;6.800;2023-07-13T01:41:25;3.50;;;1.67;;
14613;SDS011;7393;51.446;6.800;2023-07-13T01:43:51;4.53;;;1.53;;
14613;SDS011;7393;51.446;6.800;2023-07-13T01:46:18;6.77;;;1.80;;
14613;SDS011;7393;51.446;6.800;2023-07-13T01:48:45;4.57;;;1.13;;
14613;SDS011;7393;51.446;6.800;2023-07-13T01:51:12;6.23;;;1.60;;
14613;SDS011;7393;51.446;6.800;2023-07-13T01:53:39;9.03;;;2.30;;
14613;SDS011;7393;51.446;6.800;2023-07-13T01:56:07;5.07;;;2.03;;
14613;SDS011;7393;51.446;6.800;2023-07-13T01:58:34;4.27;;;1.77;;
14613;SDS011;7393;51.446;6.800;2023-07-13T02:01:00;5.30;;;1.67;;
14613;SDS011;7393;51.446;6.800;2023-07-13T02:03:27;4.30;;;1.63;;
14613;SDS011;7393;51.446;6.800;2023-07-13T02:05:54;4.20;;;1.40;;
14613;SDS011;7393;51.446;6.800;2023-07-13T02:08:21;4.13;;;1.50;;
14613;SDS011;7393;51.446;6.800;2023-07-13T02:10:47;5.47;;;1.97;;
14613;SDS011;7393;51.446;6.800;2023-07-13T02:13:16;4.50;;;1.73;;
14613;SDS011;7393;51.446;6.800;2023-07-13T02:15:42;2.17;;;1.40;;
14613;SDS011;7393;51.446;6.800;2023-07-13T02:18:09;4.50;;;1.47;;
14613;SDS011;7393;51.446;6.800;2023-07-13T02:20:36;3.33;;;1.20;;
14613;SDS011;7393;51.446;6.800;2023-07-13T02:23:03;6.53;;;1.50;;
14613;SDS011;7393;51.446;6.800;2023-07-13T02:25:29;6.80;;;2.00;;
14613;SDS011;7393;51.446;6.800;2023-07-13T02:27:56;5.13;;;1.50;;
14613;SDS011;7393;51.446;6.800;2023-07-13T02:30:24;6.53;;;1.70;;
14613;SDS011;7393;51.446;6.800;2023-07-13T02:32:51;4.80;;;1.60;;
14613;SDS011;7393;51.446;6.800;2023-07-13T02:35:18;4.37;;;1.73;;
14613;SDS011;7393;51.446;6.800;2023-07-13T02:37:45;4.37;;;1.60;;
14613;SDS011;7393;51.446;6.800;2023-07-13T02:40:12;5.00;;;1.70;;
14613;SDS011;7393;51.446;6.800;2023-07-13T02:42:39;3.70;;;1.80;;
14613;SDS011;7393;51.446;6.800;2023-07-13T02:45:06;5.17;;;1.67;;
14613;SDS011;7393;51.446;6.800;2023-07-13T02:47:36;3.13;;;1.60;;
14613;SDS011;7393;51.446;6.800;2023-07-13T02:50:03;6.03;;;1.90;;
14613;SDS011;7393;51.446;6.800;2023-07-13T02:52:30;4.47;;;1.67;;
14613;SDS011;7393;51.446;6.800;2023-07-13T02:54:57;6.47;;;1.80;;
14613;SDS011;7393;51.446;6.800;2023-07-13T02:57:24;4.63;;;1.70;;
14613;SDS011;7393;51.446;6.800;2023-07-13T02:59:52;3.30;;;1.60;;
14613;SDS011;7393;51.446;6.800;2023-07-13T03:02:19;5.47;;;1.50;;
14613;SDS011;7393;51.446;6.800;2023-07-13T03:04:47;4.87;;;1.77;;
14613;SDS011;7393;51.446;6.800;2023-07-13T03:07:14;2.70;;;1.77;;
14613;SDS011;7393;51.446;6.800;2023-07-13T03:09:41;3.33;;;1.77;;
14613;SDS011;7393;51.446;6.800;2023-07-13T03:12:08;5.23;;;1.60;;
14613;SDS011;7393;51.446;6.800;2023-07-13T03:14:34;4.87;;;1.70;;
14613;SDS011;7393;51.446;6.800;2023-07-13T03:17:01;3.80;;;1.83;;
14613;SDS011;7393;51.446;6.800;2023-07-13T03:19:28;3.80;;;1.70;;
14613;SDS011;7393;51.446;6.800;2023-07-13T03:21:56;3.90;;;1.70;;
14613;SDS011;7393;51.446;6.800;2023-07-13T03:24:23;3.13;;;1.50;;
14613;SDS011;7393;51.446;6.800;2023-07-13T03:26:50;6.20;;;1.80;;
14613;SDS011;7393;51.446;6.800;2023-07-13T03:29:17;3.83;;;1.47;;
14613;SDS011;7393;51.446;6.800;2023-07-13T03:31:44;4.03;;;1.87;;
14613;SDS011;7393;51.446;6.800;2023-07-13T03:34:11;5.17;;;1.47;;
14613;SDS011;7393;51.446;6.800;2023-07-13T03:36:38;5.47;;;1.70;;
14613;SDS011;7393;51.446;6.800;2023-07-13T03:39:06;3.53;;;1.83;;
14613;SDS011;7393;51.446;6.800;2023-07-13T03:41:35;4.17;;;1.77;;
14613;SDS011;7393;51.446;6.800;2023-07-13T03:44:02;5.00;;;2.03;;
14613;SDS011;7393;51.446;6.800;2023-07-13T03:46:29;4.47;;;1.57;;
14613;SDS011;7393;51.446;6.800;2023-07-13T03:48:57;2.73;;;1.83;;
14613;SDS011;7393;51.446;6.800;2023-07-13T03:51:24;4.57;;;1.93;;
14613;SDS011;7393;51.446;6.800;2023-07-13T03:53:50;4.30;;;2.07;;
14613;SDS011;7393;51.446;6.800;2023-07-13T03:56:19;4.50;;;1.90;;
14613;SDS011;7393;51.446;6.800;2023-07-13T03:58:47;6.67;;;1.90;;
14613;SDS011;7393;51.446;6.800;2023-07-13T04:01:15;8.03;;;1.93;;
14613;SDS011;7393;51.446;6.800;2023-07-13T04:03:43;5.80;;;1.83;;
14613;SDS011;7393;51.446;6.800;2023-07-13T04:06:14;7.07;;;2.03;;
14613;SDS011;7393;51.446;6.800;2023-07-13T04:08:46;6.00;;;1.80;;
14613;SDS011;7393;51.446;6.800;2023-07-13T04:11:14;3.67;;;1.70;;
14613;SDS011;7393;51.446;6.800;2023-07-13T04:13:42;7.00;;;1.87;;
14613;SDS011;7393;51.446;6.800;2023-07-13T04:16:08;4.50;;;2.20;;
14613;SDS011;7393;51.446;6.800;2023-07-13T04:18:35;5.33;;;1.70;;
14613;SDS011;7393;51.446;6.800;2023-07-13T04:21:02;5.73;;;1.80;;
14613;SDS011;7393;51.446;6.800;2023-07-13T04:23:29;4.77;;;1.67;;
14613;SDS011;7393;51.446;6.800;2023-07-13T04:25:56;5.27;;;1.63;;
14613;SDS011;7393;51.446;6.800;2023-07-13T04:28:22;4.77;;;1.60;;
14613;SDS011;7393;51.446;6.800;2023-07-13T04:30:52;6.50;;;1.90;;
14613;SDS011;7393;51.446;6.800;2023-07-13T04:33:19;5.53;;;1.77;;
14613;SDS011;7393;51.446;6.800;2023-07-13T04:35:47;3.63;;;1.57;;
14613;SDS011;7393;51.446;6.800;2023-07-13T04:38:14;5.73;;;1.80;;
14613;SDS011;7393;51.446;6.800;2023-07-13T04:40:42;4.07;;;1.70;;
14613;SDS011;7393;51.446;6.800;2023-07-13T04:43:09;6.77;;;1.50;;
14613;SDS011;7393;51.446;6.800;2023-07-13T04:45:36;4.60;;;1.97;;
14613;SDS011;7393;51.446;6.800;2023-07-13T04:48:05;8.27;;;1.80;;
14613;SDS011;7393;51.446;6.800;2023-07-13T04:50:31;4.27;;;1.77;;
14613;SDS011;7393;51.446;6.800;2023-07-13T04:52:58;6.70;;;1.97;;
14613;SDS011;7393;51.446;6.800;2023-07-13T04:55:25;6.57;;;1.70;;
14613;SDS011;7393;51.446;6.800;2023-07-13T04:57:55;7.23;;;2.30;;
14613;SDS011;7393;51.446;6.800;2023-07-13T05:00:24;4.13;;;2.10;;
14613;SDS011;7393;51.446;6.800;2023-07-13T05:02:51;6.10;;;1.93;;
14613;SDS011;7393;51.446;6.800;2023-07-13T05:05:21;7.07;;;1.90;;
14613;SDS011;7393;51.446;6.800;2023-07-13T05:07:48;5.37;;;1.93;;
14613;SDS011;7393;51.446;6.800;2023-07-13T05:10:15;4.77;;;2.07;;
14613;SDS011;7393;51.446;6.800;2023-07-13T05:12:42;6.20;;;1.90;;
14613;SDS011;7393;51.446;6.800;2023-07-13T05:15:09;5.77;;;2.30;;
14613;SDS011;7393;51.446;6.800;2023-07-13T05:17:36;7.13;;;2.50;;
14613;SDS011;7393;51.446;6.800;2023-07-13T05:20:04;6.33;;;2.10;;
14613;SDS011;7393;51.446;6.800;2023-07-13T05:22:33;7.13;;;2.40;;
14613;SDS011;7393;51.446;6.800;2023-07-13T05:25:00;6.90;;;2.57;;
14613;SDS011;7393;51.446;6.800;2023-07-13T05:27:27;8.37;;;2.63;;
14613;SDS011;7393;51.446;6.800;2023-07-13T05:29:54;10.57;;;2.47;;
14613;SDS011;7393;51.446;6.800;2023-07-13T05:32:21;7.23;;;2.80;;
14613;SDS011;7393;51.446;6.800;2023-07-13T05:34:48;11.30;;;2.60;;
14613;SDS011;7393;51.446;6.800;2023-07-13T05:37:15;7.03;;;2.17;;
14613;SDS011;7393;51.446;6.800;2023-07-13T05:39:43;7.63;;;2.40;;
14613;SDS011;7393;51.446;6.800;2023-07-13T05:42:10;4.40;;;2.00;;
14613;SDS011;7393;51.446;6.800;2023-07-13T05:44:36;5.73;;;2.43;;
14613;SDS011;7393;51.446;6.800;2023-07-13T05:47:03;9.17;;;2.37;;
14613;SDS011;7393;51.446;6.800;2023-07-13T05:49:31;7.20;;;2.27;;
14613;SDS011;7393;51.446;6.800;2023-07-13T05:51:57;11.10;;;2.30;;
14613;SDS011;7393;51.446;6.800;2023-07-13T05:54:24;9.10;;;2.73;;
14613;SDS011;7393;51.446;6.800;2023-07-13T05:56:52;10.00;;;2.17;;
14613;SDS011;7393;51.446;6.800;2023-07-13T05:59:19;7.40;;;2.57;;
14613;SDS011;7393;51.446;6.800;2023-07-13T06:01:46;5.87;;;2.20;;
14613;SDS011;7393;51.446;6.800;2023-07-13T06:04:13;7.47;;;2.33;;
14613;SDS011;7393;51.446;6.800;2023-07-13T06:06:40;7.70;;;2.37;;
14613;SDS011;7393;51.446;6.800;2023-07-13T06:09:06;6.97;;;2.53;;
14613;SDS011;7393;51.446;6.800;2023-07-13T06:11:33;9.90;;;2.87;;
14613;SDS011;7393;51.446;6.800;2023-07-13T06:14:01;8.10;;;2.20;;
14613;SDS011;7393;51.446;6.800;2023-07-13T06:16:28;6.60;;;2.73;;
14613;SDS011;7393;51.446;6.800;2023-07-13T06:18:55;6.07;;;2.50;;
14613;SDS011;7393;51.446;6.800;2023-07-13T06:21:22;7.27;;;2.63;;
14613;SDS011;7393;51.446;6.800;2023-07-13T06:23:49;8.17;;;2.60;;
14613;SDS011;7393;51.446;6.800;2023-07-13T06:26:17;7.40;;;2.73;;
14613;SDS011;7393;51.446;6.800;2023-07-13T06:28:45;6.20;;;3.10;;
14613;SDS011;7393;51.446;6.800;2023-07-13T06:31:14;11.77;;;3.40;;
14613;SDS011;7393;51.446;6.800;2023-07-13T06:33:41;7.57;;;2.63;;
14613;SDS011;7393;51.446;6.800;2023-07-13T06:36:09;9.50;;;3.17;;
14613;SDS011;7393;51.446;6.800;2023-07-13T06:38:36;8.90;;;2.80;;
14613;SDS011;7393;51.446;6.800;2023-07-13T06:41:03;9.20;;;3.00;;
14613;SDS011;7393;51.446;6.800;2023-07-13T06:43:31;9.93;;;2.80;;
14613;SDS011;7393;51.446;6.800;2023-07-13T06:45:58;9.50;;;2.90;;
14613;SDS011;7393;51.446;6.800;2023-07-13T06:48:27;9.30;;;2.80;;
14613;SDS011;7393;51.446;6.800;2023-07-13T06:50:54;7.00;;;2.93;;
14613;SDS011;7393;51.446;6.800;2023-07-13T06:53:21;7.53;;;2.87;;
14613;SDS011;7393;51.446;6.800;2023-07-13T06:55:48;7.07;;;3.10;;
14613;SDS011;7393;51.446;6.800;2023-07-13T06:58:16;8.43;;;3.00;;
14613;SDS011;7393;51.446;6.800;2023-07-13T07:00:45;9.60;;;3.00;;
14613;SDS011;7393;51.446;6.800;2023-07-13T07:03:16;8.47;;;2.97;;
14613;SDS011;7393;51.446;6.800;2023-07-13T07:05:44;6.73;;;2.73;;
14613;SDS011;7393;51.446;6.800;2023-07-13T07:08:11;7.47;;;2.57;;
14613;SDS011;7393;51.446;6.800;2023-07-13T07:10:37;13.07;;;3.33;;
14613;SDS011;7393;51.446;6.800;2023-07-13T07:13:06;8.20;;;2.83;;
14613;SDS011;7393;51.446;6.800;2023-07-13T07:15:33;9.77;;;3.33;;
14613;SDS011;7393;51.446;6.800;2023-07-13T07:18:01;7.73;;;3.17;;
14613;SDS011;7393;51.446;6.800;2023-07-13T07:20:28;8.33;;;2.93;;
14613;SDS011;7393;51.446;6.800;2023-07-13T07:22:57;10.90;;;3.07;;
14613;SDS011;7393;51.446;6.800;2023-07-13T07:25:23;6.03;;;3.03;;
14613;SDS011;7393;51.446;6.800;2023-07-13T07:27:50;8.43;;;3.30;;
14613;SDS011;7393;51.446;6.800;2023-07-13T07:30:17;6.47;;;2.83;;
14613;SDS011;7393;51.446;6.800;2023-07-13T07:32:44;9.23;;;3.03;;
14613;SDS011;7393;51.446;6.800;2023-07-13T07:35:11;7.13;;;3.00;;
14613;SDS011;7393;51.446;6.800;2023-07-13T07:37:37;8.43;;;2.90;;
14613;SDS011;7393;51.446;6.800;2023-07-13T07:40:07;8.10;;;2.60;;
14613;SDS011;7393;51.446;6.800;2023-07-13T07:42:34;12.77;;;3.53;;
14613;SDS011;7393;51.446;6.800;2023-07-13T07:45:01;7.63;;;3.00;;
14613;SDS011;7393;51.446;6.800;2023-07-13T07:47:28;8.17;;;3.30;;
14613;SDS011;7393;51.446;6.800;2023-07-13T07:49:54;7.47;;;3.37;;
14613;SDS011;7393;51.446;6.800;2023-07-13T07:52:21;8.87;;;3.10;;
14613;SDS011;7393;51.446;6.800;2023-07-13T07:54:48;8.80;;;3.30;;
14613;SDS011;7393;51.446;6.800;2023-07-13T07:57:16;7.53;;;3.47;;
14613;SDS011;7393;51.446;6.800;2023-07-13T07:59:43;7.73;;;2.80;;
14613;SDS011;7393;51.446;6.800;2023-07-13T08:02:10;8.43;;;3.50;;
14613;SDS011;7393;51.446;6.800;2023-07-13T08:04:37;8.93;;;3.27;;
14613;SDS011;7393;51.446;6.800;2023-07-13T08:07:05;8.73;;;3.13;;
14613;SDS011;7393;51.446;6.800;2023-07-13T08:09:32;7.30;;;3.10;;
14613;SDS011;7393;51.446;6.800;2023-07-13T08:11:59;7.73;;;3.30;;
14613;SDS011;7393;51.446;6.800;2023-07-13T08:14:27;7.10;;;3.20;;
14613;SDS011;7393;51.446;6.800;2023-07-13T08:16:54;7.93;;;3.27;;
14613;SDS011;7393;51.446;6.800;2023-07-13T08:19:21;5.80;;;2.83;;
14613;SDS011;7393;51.446;6.800;2023-07-13T08:21:48;7.10;;;3.10;;
14613;SDS011;7393;51.446;6.800;2023-07-13T08:24:15;9.43;;;3.10;;
14613;SDS011;7393;51.446;6.800;2023-07-13T08:26:43;9.97;;;3.00;;
14613;SDS011;7393;51.446;6.800;2023-07-13T08:29:11;10.80;;;3.03;;
14613;SDS011;7393;51.446;6.800;2023-07-13T08:31:39;8.50;;;3.17;;
14613;SDS011;7393;51.446;6.800;2023-07-13T08:34:06;9.20;;;2.80;;
14613;SDS011;7393;51.446;6.800;2023-07-13T08:36:33;9.10;;;3.10;;
14613;SDS011;7393;51.446;6.800;2023-07-13T08:39:00;10.70;;;3.17;;
14613;SDS011;7393;51.446;6.800;2023-07-13T08:41:26;8.23;;;3.83;;
14613;SDS011;7393;51.446;6.800;2023-07-13T08:43:56;8.47;;;3.00;;
14613;SDS011;7393;51.446;6.800;2023-07-13T08:46:25;9.47;;;2.83;;
14613;SDS011;7393;51.446;6.800;2023-07-13T08:49:00;9.87;;;2.80;;
14613;SDS011;7393;51.446;6.800;2023-07-13T08:51:31;6.13;;;2.57;;
14613;SDS011;7393;51.446;6.800;2023-07-13T08:54:09;6.03;;;2.50;;
14613;SDS011;7393;51.446;6.800;2023-07-13T08:56:45;7.93;;;2.80;;
14613;SDS011;7393;51.446;6.800;2023-07-13T08:59:14;6.97;;;2.80;;
14613;SDS011;7393;51.446;6.800;2023-07-13T09:01:56;5.63;;;2.23;;
14613;SDS011;7393;51.446;6.800;2023-07-13T09:04:42;7.63;;;2.67;;
14613;SDS011;7393;51.446;6.800;2023-07-13T09:07:14;6.27;;;2.83;;
14613;SDS011;7393;51.446;6.800;2023-07-13T09:09:50;6.37;;;2.30;;
14613;SDS011;7393;51.446;6.800;2023-07-13T09:12:27;11.10;;;2.90;;
14613;SDS011;7393;51.446;6.800;2023-07-13T09:15:01;8.53;;;3.10;;
14613;SDS011;7393;51.446;6.800;2023-07-13T09:17:32;7.67;;;2.60;;
14613;SDS011;7393;51.446;6.800;2023-07-13T09:20:06;7.50;;;2.70;;
14613;SDS011;7393;51.446;6.800;2023-07-13T09:22:48;8.60;;;2.77;;
14613;SDS011;7393;51.446;6.800;2023-07-13T09:25:24;8.50;;;2.80;;
14613;SDS011;7393;51.446;6.800;2023-07-13T09:27:57;7.47;;;3.03;;
14613;SDS011;7393;51.446;6.800;2023-07-13T09:30:30;7.87;;;2.80;;
14613;SDS011;7393;51.446;6.800;2023-07-13T09:33:03;8.87;;;2.93;;
14613;SDS011;7393;51.446;6.800;2023-07-13T09:35:31;5.93;;;3.03;;
14613;SDS011;7393;51.446;6.800;2023-07-13T09:38:03;5.90;;;3.03;;
14613;SDS011;7393;51.446;6.800;2023-07-13T09:40:40;7.47;;;3.17;;
14613;SDS011;7393;51.446;6.800;2023-07-13T09:43:15;5.87;;;2.50;;
14613;SDS011;7393;51.446;6.800;2023-07-13T09:45:45;6.53;;;2.77;;
14613;SDS011;7393;51.446;6.800;2023-07-13T09:48:14;9.00;;;3.00;;
14613;SDS011;7393;51.446;6.800;2023-07-13T09:50:43;8.50;;;2.70;;
14613;SDS011;7393;51.446;6.800;2023-07-13T09:53:11;8.67;;;2.70;;
14613;SDS011;7393;51.446;6.800;2023-07-13T09:55:40;8.27;;;2.43;;
14613;SDS011;7393;51.446;6.800;2023-07-13T09:58:09;5.37;;;2.60;;
14613;SDS011;7393;51.446;6.800;2023-07-13T10:00:38;9.33;;;2.77;;
14613;SDS011;7393;51.446;6.800;2023-07-13T10:03:14;7.30;;;2.57;;
14613;SDS011;7393;51.446;6.800;2023-07-13T10:05:47;7.33;;;2.97;;
14613;SDS011;7393;51.446;6.800;2023-07-13T10:08:20;6.13;;;2.37;;
14613;SDS011;7393;51.446;6.800;2023-07-13T10:10:54;9.53;;;2.50;;
14613;SDS011;7393;51.446;6.800;2023-07-13T10:13:25;5.80;;;2.40;;
14613;SDS011;7393;51.446;6.800;2023-07-13T10:15:55;10.23;;;2.23;;
14613;SDS011;7393;51.446;6.800;2023-07-13T10:18:23;7.73;;;2.50;;
14613;SDS011;7393;51.446;6.800;2023-07-13T10:20:54;7.50;;;2.30;;
14613;SDS011;7393;51.446;6.800;2023-07-13T10:23:35;5.33;;;2.20;;
14613;SDS011;7393;51.446;6.800;2023-07-13T10:26:02;9.90;;;2.43;;
14613;SDS011;7393;51.446;6.800;2023-07-13T10:28:31;4.40;;;2.47;;
14613;SDS011;7393;51.446;6.800;2023-07-13T10:31:02;4.80;;;2.23;;
14613;SDS011;7393;51.446;6.800;2023-07-13T10:33:36;8.70;;;2.43;;
14613;SDS011;7393;51.446;6.800;2023-07-13T10:36:05;5.20;;;2.10;;
14613;SDS011;7393;51.446;6.800;2023-07-13T10:38:40;6.73;;;2.53;;
14613;SDS011;7393;51.446;6.800;2023-07-13T10:41:09;4.67;;;2.10;;
14613;SDS011;7393;51.446;6.800;2023-07-13T10:43:42;6.70;;;2.30;;
14613;SDS011;7393;51.446;6.800;2023-07-13T10:46:12;11.03;;;2.83;;
14613;SDS011;7393;51.446;6.800;2023-07-13T10:48:42;7.57;;;2.50;;
14613;SDS011;7393;51.446;6.800;2023-07-13T10:51:14;7.57;;;2.10;;
14613;SDS011;7393;51.446;6.800;2023-07-13T10:53:46;7.83;;;2.20;;
14613;SDS011;7393;51.446;6.800;2023-07-13T10:56:19;5.23;;;2.10;;
14613;SDS011;7393;51.446;6.800;2023-07-13T10:59:01;5.53;;;2.30;;
14613;SDS011;7393;51.446;6.800;2023-07-13T11:01:39;4.27;;;1.97;;
14613;SDS011;7393;51.446;6.800;2023-07-13T11:04:08;8.87;;;2.30;;
14613;SDS011;7393;51.446;6.800;2023-07-13T11:06:48;5.30;;;2.40;;
14613;SDS011;7393;51.446;6.800;2023-07-13T11:09:24;4.60;;;2.20;;
14613;SDS011;7393;51.446;6.800;2023-07-13T11:11:58;4.57;;;2.33;;
14613;SDS011;7393;51.446;6.800;2023-07-13T11:14:27;5.17;;;1.97;;
14613;SDS011;7393;51.446;6.800;2023-07-13T11:16:57;4.33;;;1.80;;
14613;SDS011;7393;51.446;6.800;2023-07-13T11:19:29;4.27;;;1.80;;
14613;SDS011;7393;51.446;6.800;2023-07-13T11:22:15;6.73;;;1.90;;
14613;SDS011;7393;51.446;6.800;2023-07-13T11:24:49;5.43;;;1.90;;
14613;SDS011;7393;51.446;6.800;2023-07-13T11:27:33;4.43;;;1.83;;
14613;SDS011;7393;51.446;6.800;2023-07-13T11:33:14;5.90;;;2.10;;
14613;SDS011;7393;51.446;6.800;2023-07-13T11:35:45;5.33;;;1.90;;
14613;SDS011;7393;51.446;6.800;2023-07-13T11:38:21;7.17;;;1.90;;
14613;SDS011;7393;51.446;6.800;2023-07-13T11:40:50;5.27;;;1.83;;
14613;SDS011;7393;51.446;6.800;2023-07-13T11:43:20;3.87;;;1.80;;
14613;SDS011;7393;51.446;6.800;2023-07-13T11:45:49;4.97;;;1.80;;
14613;SDS011;7393;51.446;6.800;2023-07-13T11:48:18;4.57;;;2.00;;
14613;SDS011;7393;51.446;6.800;2023-07-13T11:50:50;8.13;;;2.00;;
14613;SDS011;7393;51.446;6.800;2023-07-13T11:53:20;4.67;;;1.70;;
14613;SDS011;7393;51.446;6.800;2023-07-13T11:55:48;2.97;;;1.60;;
14613;SDS011;7393;51.446;6.800;2023-07-13T11:58:16;3.13;;;1.70;;
14613;SDS011;7393;51.446;6.800;2023-07-13T12:00:47;3.53;;;1.50;;
14613;SDS011;7393;51.446;6.800;2023-07-13T12:03:14;3.07;;;1.50;;
14613;SDS011;7393;51.446;6.800;2023-07-13T12:05:55;3.17;;;1.50;;
14613;SDS011;7393;51.446;6.800;2023-07-13T12:08:24;4.13;;;1.70;;
14613;SDS011;7393;51.446;6.800;2023-07-13T12:11:02;5.07;;;1.80;;
14613;SDS011;7393;51.446;6.800;2023-07-13T12:13:35;4.97;;;1.90;;
14613;SDS011;7393;51.446;6.800;2023-07-13T12:16:10;7.43;;;1.70;;
14613;SDS011;7393;51.446;6.800;2023-07-13T12:18:39;3.77;;;1.60;;
14613;SDS011;7393;51.446;6.800;2023-07-13T12:21:11;3.77;;;1.60;;
14613;SDS011;7393;51.446;6.800;2023-07-13T12:23:42;8.00;;;1.80;;
14613;SDS011;7393;51.446;6.800;2023-07-13T12:26:10;5.70;;;1.63;;
14613;SDS011;7393;51.446;6.800;2023-07-13T12:28:38;5.97;;;1.67;;
14613;SDS011;7393;51.446;6.800;2023-07-13T12:31:22;4.03;;;1.90;;
14613;SDS011;7393;51.446;6.800;2023-07-13T12:33:58;4.30;;;1.67;;
14613;SDS011;7393;51.446;6.800;2023-07-13T12:36:26;4.20;;;1.60;;
14613;SDS011;7393;51.446;6.800;2023-07-13T12:39:00;3.17;;;1.60;;
14613;SDS011;7393;51.446;6.800;2023-07-13T12:41:40;4.38;;;2.00;;
14613;SDS011;7393;51.446;6.800;2023-07-13T12:44:10;3.50;;;2.00;;
14613;SDS011;7393;51.446;6.800;2023-07-13T12:46:50;3.08;;;1.70;;
14613;SDS011;7393;51.446;6.800;2023-07-13T12:49:21;3.65;;;1.67;;
14613;SDS011;7393;51.446;6.800;2023-07-13T12:51:50;10.10;;;2.07;;
14613;SDS011;7393;51.446;6.800;2023-07-13T12:54:23;4.47;;;1.60;;
14613;SDS011;7393;51.446;6.800;2023-07-13T12:56:49;6.27;;;1.70;;
14613;SDS011;7393;51.446;6.800;2023-07-13T12:59:20;7.33;;;2.07;;
14613;SDS011;7393;51.446;6.800;2023-07-13T13:01:48;6.43;;;1.70;;
14613;SDS011;7393;51.446;6.800;2023-07-13T13:04:15;4.47;;;1.67;;
14613;SDS011;7393;51.446;6.800;2023-07-13T13:06:46;3.90;;;1.70;;
14613;SDS011;7393;51.446;6.800;2023-07-13T13:09:14;6.47;;;2.07;;
14613;SDS011;7393;51.446;6.800;2023-07-13T13:11:44;4.37;;;1.97;;
14613;SDS011;7393;51.446;6.800;2023-07-13T13:14:11;3.57;;;1.90;;
14613;SDS011;7393;51.446;6.800;2023-07-13T13:16:43;4.33;;;2.00;;
14613;SDS011;7393;51.446;6.800;2023-07-13T13:19:15;6.00;;;1.90;;
14613;SDS011;7393;51.446;6.800;2023-07-13T13:21:43;3.37;;;1.80;;
14613;SDS011;7393;51.446;6.800;2023-07-13T13:24:11;9.17;;;2.23;;
14613;SDS011;7393;51.446;6.800;2023-07-13T13:26:40;3.93;;;1.70;;
14613;SDS011;7393;51.446;6.800;2023-07-13T13:29:16;5.30;;;2.00;;
14613;SDS011;7393;51.446;6.800;2023-07-13T13:31:44;6.83;;;1.70;;
14613;SDS011;7393;51.446;6.800;2023-07-13T13:34:12;3.87;;;1.80;;
14613;SDS011;7393;51.446;6.800;2023-07-13T13:36:41;2.27;;;1.60;;
14613;SDS011;7393;51.446;6.800;2023-07-13T13:39:15;3.07;;;1.63;;
14613;SDS011;7393;51.446;6.800;2023-07-13T13:41:46;3.23;;;1.50;;
14613;SDS011;7393;51.446;6.800;2023-07-13T13:44:15;4.03;;;1.60;;
14613;SDS011;7393;51.446;6.800;2023-07-13T13:46:44;3.50;;;1.60;;
14613;SDS011;7393;51.446;6.800;2023-07-13T13:49:13;3.57;;;1.87;;
14613;SDS011;7393;51.446;6.800;2023-07-13T13:51:42;5.07;;;1.70;;
14613;SDS011;7393;51.446;6.800;2023-07-13T13:54:10;8.23;;;2.20;;
14613;SDS011;7393;51.446;6.800;2023-07-13T13:56:38;4.33;;;1.87;;
14613;SDS011;7393;51.446;6.800;2023-07-13T13:59:07;6.03;;;2.00;;
14613;SDS011;7393;51.446;6.800;2023-07-13T14:01:35;7.10;;;2.13;;
14613;SDS011;7393;51.446;6.800;2023-07-13T14:04:03;4.13;;;2.20;;
14613;SDS011;7393;51.446;6.800;2023-07-13T14:06:31;8.07;;;2.53;;
14613;SDS011;7393;51.446;6.800;2023-07-13T14:08:59;7.73;;;2.73;;
14613;SDS011;7393;51.446;6.800;2023-07-13T14:11:27;12.00;;;2.50;;
14613;SDS011;7393;51.446;6.800;2023-07-13T14:13:57;6.57;;;2.33;;
14613;SDS011;7393;51.446;6.800;2023-07-13T14:16:26;7.90;;;2.20;;
14613;SDS011;7393;51.446;6.800;2023-07-13T14:18:58;4.40;;;2.23;;
14613;SDS011;7393;51.446;6.800;2023-07-13T14:21:26;5.27;;;2.13;;
14613;SDS011;7393;51.446;6.800;2023-07-13T14:23:54;6.70;;;2.57;;
14613;SDS011;7393;51.446;6.800;2023-07-13T14:26:22;4.97;;;2.60;;
14613;SDS011;7393;51.446;6.800;2023-07-13T14:28:51;7.07;;;2.30;;
14613;SDS011;7393;51.446;6.800;2023-07-13T14:31:20;9.17;;;2.67;;
14613;SDS011;7393;51.446;6.800;2023-07-13T14:33:48;5.80;;;2.30;;
14613;SDS011;7393;51.446;6.800;2023-07-13T14:36:25;5.47;;;2.47;;
14613;SDS011;7393;51.446;6.800;2023-07-13T14:38:55;4.37;;;2.17;;
14613;SDS011;7393;51.446;6.800;2023-07-13T14:41:22;6.50;;;2.33;;
14613;SDS011;7393;51.446;6.800;2023-07-13T14:43:50;4.87;;;2.10;;
14613;SDS011;7393;51.446;6.800;2023-07-13T14:46:21;6.13;;;2.50;;
14613;SDS011;7393;51.446;6.800;2023-07-13T14:48:53;5.27;;;2.50;;
14613;SDS011;7393;51.446;6.800;2023-07-13T14:51:28;6.17;;;2.40;;
14613;SDS011;7393;51.446;6.800;2023-07-13T14:53:55;7.30;;;2.30;;
14613;SDS011;7393;51.446;6.800;2023-07-13T14:56:22;5.73;;;2.27;;
14613;SDS011;7393;51.446;6.800;2023-07-13T14:58:49;5.77;;;2.23;;
14613;SDS011;7393;51.446;6.800;2023-07-13T15:01:18;6.73;;;2.23;;
14613;SDS011;7393;51.446;6.800;2023-07-13T15:03:46;6.67;;;2.03;;
14613;SDS011;7393;51.446;6.800;2023-07-13T15:06:15;6.10;;;2.10;;
14613;SDS011;7393;51.446;6.800;2023-07-13T15:08:43;3.73;;;1.87;;
14613;SDS011;7393;51.446;6.800;2023-07-13T15:11:10;4.67;;;2.00;;
14613;SDS011;7393;51.446;6.800;2023-07-13T15:13:38;4.60;;;2.27;;